Portada
METAR-TAF:

METAR-TAF

Aeroports :

Philip Municipal Airport

Philip, Dakota del Sud, Estats Units d'Amèrica

latitud: 44-03-04N, longitud: 101-36-04W, altitud: 673 m

Observació

L'informe es va fer fa 59 minuts, a les 19:55 UTC
Vent 9 kt del Est
Temperatura 28°C
Humitat 58%
Pressió 1015 hPa
Visibilitat: 16.1 km
Cel ennuvolat a una alçada de 3900 ft
Cel cobert a una alçada de 5000 ft

METAR: KPHP 081955Z AUTO 10009KT 10SM BKN039 OVC050 28/19 A2998 RMK AO2 SLP130 T02830189

Hora: 14:54 (20:54 UTC)


TAF: manca

Observacions i pronòstics meteorològics de més de 4000 aeroports (METAR i TAF).

Les estacions disponibles són els punts grocs i vermells al mapa.

Posi el ratolí al punt desitjat per veure el nom de l'estació.

Feu clic per veure les observacions i els pronòstics meteorològics.

Per canviar el mapa: feu clic els botons verds amb una creu de color negre per apropar; al botó verd amb un guió per allunyar la imatge; o en les fletxes verdes per a mapes adjacents.


METAR-TAF: